Time;durP1;ratioP1;P1;durP2;ratioP2;P2;SDS_P1;SDS_P2;PMS_P1;PMS_P2;Temp;Humidity;BMP_temperature;BMP_pressure;BME280_temperature;BME280_humidity;BME280_pressure;Samples;Min_cycle;Max_cycle;Signal;HPM_P1;HPM_P2
2020/12/21 00:02:18;;;;;;;6.03;4.60;;;8.20;99.90;;;;;;5074946;28;20533;-73
2020/12/21 00:04:44;;;;;;;6.87;5.23;;;8.20;99.90;;;;;;5074105;28;20559;-73
2020/12/21 00:07:10;;;;;;;7.93;5.60;;;8.20;99.90;;;;;;5075855;28;20934;-73
2020/12/21 00:09:37;;;;;;;6.63;4.97;;;8.20;99.90;;;;;;5073930;28;20455;-73
2020/12/21 00:12:03;;;;;;;6.20;3.97;;;8.20;99.90;;;;;;5074909;28;20453;-73
2020/12/21 00:14:30;;;;;;;5.90;5.13;;;8.20;99.90;;;;;;5073674;28;20984;-72
2020/12/21 00:16:56;;;;;;;6.37;4.83;;;8.10;99.90;;;;;;5073654;28;20477;-73
2020/12/21 00:19:24;;;;;;;6.13;5.27;;;8.20;99.90;;;;;;5074326;28;20816;-72
2020/12/21 00:21:53;;;;;;;8.90;4.93;;;8.20;99.90;;;;;;5074128;28;20452;-74
2020/12/21 00:24:20;;;;;;;5.77;4.87;;;8.20;99.90;;;;;;5074434;28;20460;-74
2020/12/21 00:26:48;;;;;;;6.27;4.30;;;8.20;99.90;;;;;;5073658;28;20536;-73
2020/12/21 00:29:14;;;;;;;9.70;5.47;;;8.30;99.90;;;;;;5074001;28;20537;-75
2020/12/21 00:31:41;;;;;;;5.00;4.50;;;8.30;99.90;;;;;;5077918;28;20927;-75
2020/12/21 00:34:08;;;;;;;4.97;3.83;;;8.40;99.90;;;;;;5074113;28;20979;-73
2020/12/21 00:36:37;;;;;;;8.20;5.43;;;8.30;99.90;;;;;;5072885;28;20528;-73
2020/12/21 00:39:05;;;;;;;6.33;4.33;;;8.20;99.90;;;;;;5073808;28;20532;-73
2020/12/21 00:41:32;;;;;;;6.03;4.93;;;8.20;99.90;;;;;;5073059;28;20536;-73
2020/12/21 00:43:58;;;;;;;4.70;3.80;;;8.20;99.90;;;;;;5074066;28;20530;-73
2020/12/21 00:46:27;;;;;;;5.17;4.10;;;8.20;99.90;;;;;;5073600;28;20449;-74
2020/12/21 00:48:55;;;;;;;5.43;4.10;;;8.10;99.90;;;;;;5073657;28;20456;-73
2020/12/21 00:51:21;;;;;;;5.07;4.27;;;8.10;99.90;;;;;;5073641;28;20543;-73
2020/12/21 00:53:49;;;;;;;5.77;3.93;;;8.10;99.90;;;;;;5073378;28;20920;-72
2020/12/21 00:56:17;;;;;;;4.70;3.83;;;8.00;99.90;;;;;;5073326;28;20520;-73
2020/12/21 00:58:45;;;;;;;5.53;4.20;;;8.00;99.90;;;;;;5073352;28;20464;-73
2020/12/21 01:01:13;;;;;;;4.83;4.20;;;8.00;99.90;;;;;;5072729;28;21020;-73
2020/12/21 01:03:40;;;;;;;4.70;3.30;;;8.10;99.90;;;;;;5073124;28;20538;-74
2020/12/21 01:06:06;;;;;;;5.20;3.70;;;8.10;99.90;;;;;;5073111;28;20524;-73
2020/12/21 01:08:34;;;;;;;4.87;4.43;;;8.10;99.90;;;;;;5073020;28;20529;-72
2020/12/21 01:11:01;;;;;;;5.53;4.20;;;8.00;99.90;;;;;;5073499;28;20449;-73
2020/12/21 01:13:28;;;;;;;6.43;3.10;;;8.10;99.90;;;;;;5073645;28;20455;-73
2020/12/21 01:15:54;;;;;;;4.50;3.20;;;8.20;99.90;;;;;;5072755;28;20452;-73
2020/12/21 01:18:21;;;;;;;6.47;3.20;;;8.40;99.90;;;;;;5073380;28;20448;-73
2020/12/21 01:20:47;;;;;;;4.50;3.90;;;8.20;99.90;;;;;;5072696;28;20556;-73
2020/12/21 01:23:13;;;;;;;4.67;3.60;;;8.20;99.90;;;;;;5073226;28;20477;-73
2020/12/21 01:25:40;;;;;;;6.30;4.53;;;8.20;99.90;;;;;;5072472;28;20527;-73
2020/12/21 01:28:07;;;;;;;3.23;2.93;;;8.20;99.90;;;;;;5073362;28;20840;-73
2020/12/21 01:30:33;;;;;;;5.43;3.93;;;8.10;99.90;;;;;;5071671;28;20977;-73
2020/12/21 01:33:00;;;;;;;5.00;3.93;;;8.10;99.90;;;;;;5072927;28;21028;-73
2020/12/21 01:35:26;;;;;;;4.43;3.70;;;8.00;99.90;;;;;;5072750;28;20552;-73
2020/12/21 01:37:52;;;;;;;6.57;4.03;;;8.00;99.90;;;;;;5072494;28;20544;-73
2020/12/21 01:40:19;;;;;;;7.10;3.93;;;7.90;99.90;;;;;;5072506;28;20484;-74
2020/12/21 01:42:45;;;;;;;6.10;3.70;;;7.80;99.90;;;;;;5072197;28;20483;-75
2020/12/21 01:45:12;;;;;;;4.80;3.93;;;7.80;99.90;;;;;;5073006;28;20458;-73
2020/12/21 01:47:39;;;;;;;5.60;3.93;;;7.80;99.90;;;;;;5071931;28;20452;-74
2020/12/21 01:50:06;;;;;;;5.47;3.60;;;7.80;99.90;;;;;;5072345;28;20569;-74
2020/12/21 01:52:34;;;;;;;4.00;3.13;;;7.90;99.90;;;;;;5072027;28;20875;-74
2020/12/21 01:55:01;;;;;;;4.20;3.53;;;7.80;99.90;;;;;;5076236;28;20444;-74
2020/12/21 01:57:27;;;;;;;4.23;3.83;;;7.60;99.90;;;;;;5087575;28;20525;-74
2020/12/21 01:59:55;;;;;;;4.10;3.30;;;7.60;99.90;;;;;;5071649;28;20450;-74
2020/12/21 02:02:22;;;;;;;4.23;3.43;;;7.50;99.90;;;;;;5072028;28;21078;-74
2020/12/21 02:04:49;;;;;;;3.97;3.40;;;7.50;99.90;;;;;;5089726;28;20529;-75
2020/12/21 02:07:15;;;;;;;6.23;3.20;;;7.50;99.90;;;;;;5073462;28;20472;-75
2020/12/21 02:09:42;;;;;;;7.00;3.40;;;7.50;99.90;;;;;;5071897;28;20494;-75
2020/12/21 02:12:09;;;;;;;4.27;3.00;;;7.40;99.90;;;;;;5072352;28;20500;-75
2020/12/21 02:14:36;;;;;;;4.07;3.30;;;7.50;99.90;;;;;;5072289;28;20537;-75
2020/12/21 02:17:02;;;;;;;4.97;3.00;;;7.60;99.90;;;;;;5067420;28;20484;-74
2020/12/21 02:19:29;;;;;;;4.10;2.80;;;7.50;99.90;;;;;;5072464;28;20507;-74
2020/12/21 02:21:57;;;;;;;4.10;2.70;;;7.40;99.90;;;;;;5071415;28;20545;-74
2020/12/21 02:24:23;;;;;;;3.67;3.00;;;7.30;99.90;;;;;;5072446;28;20445;-74
2020/12/21 02:26:49;;;;;;;3.50;3.07;;;7.20;99.90;;;;;;5071264;28;21068;-74
2020/12/21 02:29:16;;;;;;;3.27;2.50;;;7.20;99.90;;;;;;5072451;28;20533;-74
2020/12/21 02:31:43;;;;;;;4.50;3.87;;;7.30;99.90;;;;;;5071452;28;20540;-75
2020/12/21 02:34:09;;;;;;;4.03;3.50;;;7.20;99.90;;;;;;5073285;28;20460;-74
2020/12/21 02:36:35;;;;;;;3.13;2.83;;;7.20;99.90;;;;;;5071060;28;20935;-74
2020/12/21 02:39:03;;;;;;;3.87;3.03;;;7.40;99.90;;;;;;5071795;28;20446;-74
2020/12/21 02:41:29;;;;;;;3.10;2.80;;;7.40;99.90;;;;;;5072281;28;20445;-73
2020/12/21 02:43:56;;;;;;;3.43;2.67;;;7.50;99.90;;;;;;5071554;28;20840;-74
2020/12/21 02:46:22;;;;;;;4.40;3.40;;;7.50;99.90;;;;;;5071581;28;20990;-74
2020/12/21 02:48:48;;;;;;;4.20;2.57;;;7.60;99.90;;;;;;5071358;28;20485;-74
2020/12/21 02:51:18;;;;;;;2.70;2.43;;;7.60;99.90;;;;;;5071893;28;20881;-74
2020/12/21 02:53:44;;;;;;;2.53;2.23;;;7.60;99.90;;;;;;5070778;28;20454;-75
2020/12/21 02:56:11;;;;;;;3.17;2.63;;;7.50;99.90;;;;;;5071052;28;21327;-74
2020/12/21 02:58:38;;;;;;;2.57;2.27;;;7.50;99.90;;;;;;5070826;28;20529;-74
2020/12/21 03:01:05;;;;;;;3.90;2.73;;;7.50;99.90;;;;;;5070984;28;20553;-73
2020/12/21 03:03:31;;;;;;;2.40;2.10;;;7.40;99.90;;;;;;5070425;28;20564;-73
2020/12/21 03:05:57;;;;;;;7.53;3.50;;;7.20;99.90;;;;;;5070843;28;20517;-73
2020/12/21 03:08:24;;;;;;;3.30;2.60;;;7.00;99.90;;;;;;5071271;28;20450;-74
2020/12/21 03:10:50;;;;;;;3.37;2.83;;;7.10;99.90;;;;;;5070993;28;20460;-74
2020/12/21 03:13:17;;;;;;;3.70;2.30;;;7.10;99.90;;;;;;5071018;28;20540;-74
2020/12/21 03:15:44;;;;;;;2.77;2.20;;;7.00;99.90;;;;;;5070257;28;20540;-73
2020/12/21 03:18:10;;;;;;;2.90;2.40;;;7.00;99.90;;;;;;5070931;28;20470;-74
2020/12/21 03:20:37;;;;;;;2.70;2.17;;;6.80;99.90;;;;;;5070827;28;20873;-73
2020/12/21 03:23:03;;;;;;;3.67;2.30;;;6.70;99.90;;;;;;5071021;28;20564;-74
2020/12/21 03:25:30;;;;;;;2.63;2.40;;;6.60;99.90;;;;;;5070537;28;20979;-73
2020/12/21 03:27:56;;;;;;;3.17;2.83;;;6.50;99.90;;;;;;5071045;28;20460;-74
2020/12/21 03:30:23;;;;;;;3.90;2.80;;;6.60;99.90;;;;;;5071039;28;20453;-74
2020/12/21 03:32:49;;;;;;;4.37;3.03;;;6.50;99.90;;;;;;5070304;28;21467;-74
2020/12/21 03:35:16;;;;;;;5.77;2.50;;;6.50;99.90;;;;;;5070841;28;20865;-74
2020/12/21 03:37:42;;;;;;;6.53;2.57;;;6.50;99.90;;;;;;5070608;28;20540;-74
2020/12/21 03:40:09;;;;;;;2.37;2.10;;;6.40;99.90;;;;;;5071114;28;20446;-74
2020/12/21 03:42:36;;;;;;;3.20;2.70;;;6.40;99.90;;;;;;5069925;28;20484;-74
2020/12/21 03:45:03;;;;;;;3.77;2.70;;;6.40;99.90;;;;;;5070998;28;20951;-74
2020/12/21 03:47:30;;;;;;;3.53;2.40;;;6.40;99.90;;;;;;5070080;28;20450;-72
2020/12/21 03:49:57;;;;;;;2.80;2.30;;;6.40;99.90;;;;;;5071141;28;20449;-74
2020/12/21 03:52:23;;;;;;;3.70;3.10;;;6.50;99.90;;;;;;5070822;28;20984;-73
2020/12/21 03:54:50;;;;;;;3.57;2.60;;;6.60;99.90;;;;;;5070234;28;20461;-74
2020/12/21 03:57:16;;;;;;;3.53;3.03;;;6.60;99.90;;;;;;5070453;28;20542;-74
2020/12/21 03:59:42;;;;;;;3.07;2.80;;;6.40;99.90;;;;;;5070246;28;20999;-74
2020/12/21 04:02:09;;;;;;;7.00;2.40;;;6.40;99.90;;;;;;5070619;28;20811;-74
2020/12/21 04:04:36;;;;;;;4.33;3.10;;;6.40;99.90;;;;;;5070530;28;20453;-74
2020/12/21 04:07:02;;;;;;;5.20;3.20;;;6.20;99.90;;;;;;5070392;28;20536;-74
2020/12/21 04:09:29;;;;;;;3.20;2.90;;;6.10;99.90;;;;;;5070733;28;20451;-74
2020/12/21 04:11:55;;;;;;;4.03;2.90;;;6.20;99.90;;;;;;5070979;28;20484;-74
2020/12/21 04:14:21;;;;;;;4.20;3.23;;;6.30;99.90;;;;;;5070460;28;20532;-74
2020/12/21 04:16:48;;;;;;;4.93;2.60;;;6.40;99.90;;;;;;5069726;28;20477;-74
2020/12/21 04:19:14;;;;;;;3.60;2.90;;;6.30;99.90;;;;;;5071023;28;20495;-73
2020/12/21 04:21:42;;;;;;;4.77;2.90;;;6.30;99.90;;;;;;5069874;28;20454;-72
2020/12/21 04:24:08;;;;;;;4.17;3.00;;;6.20;99.90;;;;;;5070539;28;20573;-72
2020/12/21 04:26:34;;;;;;;3.33;3.03;;;6.10;99.90;;;;;;5069673;28;20506;-72
2020/12/21 04:29:01;;;;;;;3.67;2.70;;;6.10;99.90;;;;;;5070148;28;20544;-72
2020/12/21 04:31:27;;;;;;;3.80;2.57;;;6.10;99.90;;;;;;5070445;28;21070;-72
2020/12/21 04:33:53;;;;;;;6.30;2.97;;;6.00;99.90;;;;;;5070031;28;20535;-72
2020/12/21 04:36:20;;;;;;;3.17;2.67;;;6.00;99.90;;;;;;5073031;28;20506;-72
2020/12/21 04:38:47;;;;;;;3.13;2.83;;;6.10;99.90;;;;;;5071723;28;20496;-73
2020/12/21 04:41:15;;;;;;;4.20;3.00;;;6.00;99.90;;;;;;5074431;28;20445;-72
2020/12/21 04:43:41;;;;;;;4.00;3.60;;;6.00;99.90;;;;;;5072958;28;20852;-72
2020/12/21 04:46:08;;;;;;;5.37;3.43;;;6.00;99.90;;;;;;5073966;28;20491;-72
2020/12/21 04:48:39;;;;;;;5.60;3.40;;;6.00;99.90;;;;;;5073110;28;21012;-73
2020/12/21 04:51:06;;;;;;;2.60;2.27;;;6.20;99.90;;;;;;5073745;28;20544;-72
2020/12/21 04:53:33;;;;;;;6.10;3.30;;;6.20;99.90;;;;;;5072291;28;20536;-72
2020/12/21 04:56:01;;;;;;;3.77;3.47;;;6.10;99.90;;;;;;5073578;28;20540;-72
2020/12/21 04:58:28;;;;;;;7.73;2.50;;;6.20;99.90;;;;;;5073537;28;20540;-72
2020/12/21 05:00:54;;;;;;;2.30;2.10;;;6.20;99.90;;;;;;5073569;28;20533;-73
2020/12/21 05:03:21;;;;;;;4.60;2.60;;;6.10;99.90;;;;;;5073196;28;20473;-74
2020/12/21 05:05:47;;;;;;;4.10;2.50;;;6.10;99.90;;;;;;5073378;28;20532;-73
2020/12/21 05:08:15;;;;;;;4.37;2.60;;;6.20;99.90;;;;;;5073657;28;20456;-73
2020/12/21 05:10:43;;;;;;;3.30;3.00;;;6.20;99.90;;;;;;5072722;28;20572;-73
2020/12/21 05:13:10;;;;;;;3.73;3.30;;;6.20;99.90;;;;;;5073493;28;20529;-73
2020/12/21 05:15:37;;;;;;;4.00;3.57;;;6.20;99.90;;;;;;5072491;28;20524;-73
2020/12/21 05:18:09;;;;;;;9.93;2.67;;;6.10;99.90;;;;;;5073681;28;20495;-72
2020/12/21 05:20:37;;;;;;;5.27;3.40;;;6.00;99.90;;;;;;5072495;28;20528;-72
2020/12/21 05:23:06;;;;;;;5.03;3.37;;;6.00;99.90;;;;;;5073271;28;20487;-72
2020/12/21 05:25:32;;;;;;;5.23;3.70;;;5.90;99.90;;;;;;5072277;28;20544;-72
2020/12/21 05:28:10;;;;;;;3.90;3.10;;;5.80;99.90;;;;;;5072849;28;20532;-72
2020/12/21 05:30:50;;;;;;;5.70;2.87;;;5.90;99.90;;;;;;5072159;28;20434;-72
2020/12/21 05:33:16;;;;;;;4.50;3.60;;;6.00;99.90;;;;;;5072979;28;20976;-72
2020/12/21 05:35:42;;;;;;;3.80;3.40;;;6.10;99.90;;;;;;5072066;28;20531;-72
2020/12/21 05:38:19;;;;;;;4.73;2.83;;;6.10;99.90;;;;;;5072951;28;20464;-72
2020/12/21 05:40:46;;;;;;;3.90;3.47;;;6.00;99.90;;;;;;5072065;28;20453;-72
2020/12/21 05:43:29;;;;;;;3.27;2.97;;;6.10;99.90;;;;;;5072650;28;20485;-72
2020/12/21 05:46:12;;;;;;;4.03;3.63;;;6.20;99.90;;;;;;5072284;28;20520;-72
2020/12/21 05:48:41;;;;;;;3.67;3.30;;;6.30;99.90;;;;;;5071935;28;20517;-72
2020/12/21 05:51:09;;;;;;;4.00;3.33;;;6.40;99.90;;;;;;5072786;28;20496;-72
2020/12/21 05:53:37;;;;;;;4.00;3.23;;;6.70;99.90;;;;;;5071998;28;20489;-72
2020/12/21 05:56:04;;;;;;;5.50;4.10;;;6.80;99.90;;;;;;5072412;28;20498;-72
2020/12/21 05:58:33;;;;;;;8.77;3.50;;;6.70;99.90;;;;;;5071929;28;20528;-71
2020/12/21 06:01:04;;;;;;;5.57;3.73;;;6.90;99.90;;;;;;5071930;28;20453;-71
2020/12/21 06:03:38;;;;;;;3.53;3.23;;;7.10;99.90;;;;;;5072259;28;20564;-71
2020/12/21 06:06:08;;;;;;;4.10;3.60;;;7.10;99.90;;;;;;5072034;28;20452;-71
2020/12/21 06:08:35;;;;;;;6.63;3.93;;;7.20;99.90;;;;;;5072442;28;20866;-71
2020/12/21 06:11:14;;;;;;;7.60;4.00;;;7.30;99.90;;;;;;5071809;28;20949;-71
2020/12/21 06:13:44;;;;;;;5.00;4.10;;;7.20;99.90;;;;;;5071552;28;20527;-72
2020/12/21 06:16:15;;;;;;;5.73;3.77;;;7.10;99.90;;;;;;5071462;28;20472;-72
2020/12/21 06:18:41;;;;;;;3.73;3.40;;;7.30;99.90;;;;;;5072025;28;20552;-72
2020/12/21 06:21:07;;;;;;;4.97;3.77;;;7.10;99.90;;;;;;5072357;28;20457;-72
2020/12/21 06:23:37;;;;;;;4.07;3.30;;;7.20;99.90;;;;;;5071662;28;20882;-71
2020/12/21 06:26:13;;;;;;;5.03;4.10;;;7.20;99.90;;;;;;5079998;28;20464;-71
2020/12/21 06:28:41;;;;;;;6.10;4.10;;;7.20;99.90;;;;;;5066806;28;20476;-72
2020/12/21 06:31:15;;;;;;;6.37;3.97;;;7.00;99.90;;;;;;5059823;28;20441;-72
2020/12/21 06:33:43;;;;;;;10.80;4.03;;;6.80;99.90;;;;;;5087449;28;20473;-72
2020/12/21 06:36:10;;;;;;;4.83;3.70;;;7.00;99.90;;;;;;5071247;28;20508;-72
2020/12/21 06:38:47;;;;;;;7.20;3.90;;;6.90;99.90;;;;;;5071239;28;20506;-71
2020/12/21 06:41:19;;;;;;;8.27;5.67;;;6.70;99.90;;;;;;5068063;28;20533;-72
2020/12/21 06:44:10;;;;;;;5.33;3.80;;;6.90;99.90;;;;;;5072747;28;21065;-73
2020/12/21 06:46:37;;;;;;;6.27;3.97;;;7.10;99.90;;;;;;5058272;28;20537;-72
2020/12/21 06:49:05;;;;;;;4.80;3.90;;;6.80;99.90;;;;;;5074855;28;20528;-72
2020/12/21 06:51:32;;;;;;;8.67;4.70;;;6.60;99.90;;;;;;5069989;28;20454;-72
2020/12/21 06:53:59;;;;;;;7.27;4.30;;;6.60;99.90;;;;;;5071514;28;20503;-72
2020/12/21 06:56:26;;;;;;;4.97;3.20;;;6.40;99.90;;;;;;5073823;28;20970;-72
2020/12/21 06:58:54;;;;;;;4.70;4.07;;;6.30;99.90;;;;;;5091309;28;20890;-71
2020/12/21 07:01:22;;;;;;;17.63;6.47;;;6.30;99.90;;;;;;5075035;28;20536;-72
2020/12/21 07:03:49;;;;;;;6.23;4.90;;;6.50;99.90;;;;;;5067837;28;20597;-72
2020/12/21 07:06:15;;;;;;;8.40;5.30;;;6.30;99.90;;;;;;5075212;28;20527;-72
2020/12/21 07:08:43;;;;;;;8.37;4.90;;;6.30;99.90;;;;;;5088510;28;20531;-72
2020/12/21 07:11:16;;;;;;;8.67;5.13;;;6.20;99.90;;;;;;5077595;28;20957;-75
2020/12/21 07:13:42;;;;;;;9.20;5.20;;;6.30;99.90;;;;;;5077187;28;20448;-74
2020/12/21 07:16:10;;;;;;;9.80;4.97;;;6.40;99.90;;;;;;5085879;28;20511;-74
2020/12/21 07:18:37;;;;;;;8.67;5.77;;;6.40;99.90;;;;;;5086327;28;20460;-80
2020/12/21 07:21:07;;;;;;;22.77;14.77;;;6.40;99.90;;;;;;5076447;28;20455;-73
2020/12/21 07:23:34;;;;;;;7.87;6.40;;;6.30;99.90;;;;;;5072044;28;20462;-69
2020/12/21 07:26:01;;;;;;;7.60;4.77;;;6.40;99.90;;;;;;5084577;28;20451;-73
2020/12/21 07:28:28;;;;;;;11.43;5.10;;;6.30;99.90;;;;;;5080375;28;20759;-71
2020/12/21 07:31:04;;;;;;;9.87;4.73;;;6.30;99.90;;;;;;5074829;28;20467;-71
2020/12/21 07:33:30;;;;;;;6.77;5.10;;;6.30;99.90;;;;;;5070754;28;20913;-70
2020/12/21 07:35:58;;;;;;;5.27;4.77;;;6.40;99.90;;;;;;5071247;28;20452;-70
2020/12/21 07:38:24;;;;;;;5.10;4.60;;;6.40;99.90;;;;;;5070917;28;20969;-71
2020/12/21 07:40:53;;;;;;;6.20;5.60;;;6.50;99.90;;;;;;5070109;28;20536;-71
2020/12/21 07:43:26;;;;;;;7.67;6.00;;;6.50;99.90;;;;;;5086186;28;20658;-71
2020/12/21 07:45:58;;;;;;;7.50;5.20;;;6.40;99.90;;;;;;5090995;28;20468;-71
2020/12/21 07:48:25;;;;;;;6.33;5.10;;;6.60;99.90;;;;;;5091521;28;20444;-71
2020/12/21 07:50:52;;;;;;;9.33;5.00;;;6.60;99.90;;;;;;5090437;28;20484;-69
2020/12/21 07:53:20;;;;;;;9.03;6.00;;;6.40;99.90;;;;;;5091204;28;20955;-72
2020/12/21 07:55:56;;;;;;;7.03;4.67;;;6.30;99.90;;;;;;5091012;28;20464;-74
2020/12/21 07:58:22;;;;;;;5.77;4.50;;;6.30;99.90;;;;;;5091050;28;20436;-73
2020/12/21 08:00:56;;;;;;;9.80;6.40;;;6.20;99.90;;;;;;5078375;28;20511;-74
2020/12/21 08:03:25;;;;;;;7.80;5.10;;;6.10;99.90;;;;;;5070753;28;20465;-74
2020/12/21 08:06:03;;;;;;;8.80;5.20;;;6.20;99.90;;;;;;5070231;28;20456;-70
2020/12/21 08:08:30;;;;;;;14.90;10.20;;;6.20;99.90;;;;;;5071150;28;20532;-76
2020/12/21 08:10:57;;;;;;;5.93;5.23;;;6.50;99.90;;;;;;5073258;28;20529;-72
2020/12/21 08:13:24;;;;;;;8.50;5.70;;;6.60;99.90;;;;;;5074849;28;20502;-72
2020/12/21 08:15:50;;;;;;;7.20;6.40;;;6.30;99.90;;;;;;5074062;28;20456;-73
2020/12/21 08:18:17;;;;;;;5.60;5.10;;;6.30;99.90;;;;;;5074624;28;20564;-75
2020/12/21 08:20:49;;;;;;;8.23;5.80;;;6.30;99.90;;;;;;5074570;28;20502;-73
2020/12/21 08:23:23;;;;;;;7.00;5.60;;;6.40;99.90;;;;;;5094587;28;20975;-73
2020/12/21 08:25:50;;;;;;;7.23;6.00;;;6.50;99.90;;;;;;5094538;28;20489;-73
2020/12/21 08:28:35;;;;;;;7.27;5.03;;;6.40;99.90;;;;;;5095082;28;20652;-71
2020/12/21 08:31:09;;;;;;;7.50;6.07;;;6.50;99.90;;;;;;5094010;28;21058;-75
2020/12/21 08:33:37;;;;;;;11.53;6.23;;;6.50;99.90;;;;;;5094247;28;20581;-77
2020/12/21 08:36:21;;;;;;;10.13;6.17;;;6.50;99.90;;;;;;5093924;28;20448;-71
2020/12/21 08:38:49;;;;;;;7.80;5.47;;;6.50;99.90;;;;;;5094368;28;20807;-74
2020/12/21 08:41:17;;;;;;;7.27;5.60;;;6.50;99.90;;;;;;5094655;28;20468;-74
2020/12/21 08:43:44;;;;;;;7.90;5.93;;;6.70;99.90;;;;;;5093798;28;20563;-74
2020/12/21 08:46:11;;;;;;;10.37;5.43;;;6.80;99.90;;;;;;5093718;28;20939;-74
2020/12/21 08:48:39;;;;;;;10.37;6.57;;;6.80;99.90;;;;;;5093853;28;20868;-75
2020/12/21 08:51:06;;;;;;;7.93;5.60;;;6.80;99.90;;;;;;5094104;28;20947;-75
2020/12/21 08:53:32;;;;;;;12.27;5.37;;;6.70;99.90;;;;;;5093680;28;20539;-76
2020/12/21 08:55:59;;;;;;;7.23;5.90;;;6.70;99.90;;;;;;5093984;28;20528;-76
2020/12/21 08:58:26;;;;;;;7.53;5.80;;;6.80;99.90;;;;;;5094258;28;20455;-76
2020/12/21 09:00:52;;;;;;;7.27;5.73;;;6.90;99.90;;;;;;5081004;28;20536;-76
2020/12/21 09:03:19;;;;;;;8.83;6.20;;;6.80;99.90;;;;;;5074094;28;20477;-76
2020/12/21 09:05:45;;;;;;;7.20;6.20;;;6.80;99.90;;;;;;5072943;28;20450;-76
2020/12/21 09:08:12;;;;;;;9.03;5.30;;;6.90;99.90;;;;;;5073608;28;20449;-75
2020/12/21 09:10:41;;;;;;;6.80;5.93;;;7.00;99.90;;;;;;5073260;28;20528;-76
2020/12/21 09:13:07;;;;;;;10.63;5.60;;;6.90;99.90;;;;;;5073552;28;20457;-76
2020/12/21 09:15:35;;;;;;;12.80;6.77;;;6.90;99.90;;;;;;5072827;28;20915;-76
2020/12/21 09:18:02;;;;;;;9.33;6.00;;;6.90;99.90;;;;;;5073261;28;20465;-76
2020/12/21 09:20:28;;;;;;;10.40;6.23;;;6.90;99.90;;;;;;5073124;28;20528;-75
2020/12/21 09:22:55;;;;;;;9.33;6.53;;;6.90;99.90;;;;;;5073035;28;20481;-75
2020/12/21 09:25:21;;;;;;;11.03;7.27;;;7.00;99.90;;;;;;5086973;28;20452;-75
2020/12/21 09:27:48;;;;;;;10.43;5.97;;;7.10;99.90;;;;;;5093467;28;20869;-75
2020/12/21 09:30:14;;;;;;;11.10;6.10;;;7.20;99.90;;;;;;5093631;28;20532;-75
2020/12/21 09:32:42;;;;;;;10.93;6.10;;;7.20;99.90;;;;;;5093145;28;20922;-76
2020/12/21 09:35:08;;;;;;;7.87;5.87;;;7.30;99.90;;;;;;5093180;28;20535;-76
2020/12/21 09:37:34;;;;;;;11.23;6.37;;;7.40;99.90;;;;;;5092637;28;20441;-77
2020/12/21 09:40:01;;;;;;;6.17;5.30;;;7.40;99.90;;;;;;5093475;28;20535;-76
2020/12/21 09:42:27;;;;;;;7.30;4.80;;;7.50;99.90;;;;;;5093655;28;20539;-76
2020/12/21 09:44:53;;;;;;;8.50;5.60;;;7.70;99.90;;;;;;5092093;28;20480;-76
2020/12/21 09:47:20;;;;;;;7.80;4.93;;;7.80;99.90;;;;;;5093778;28;20575;-77
2020/12/21 09:49:47;;;;;;;6.33;4.33;;;7.90;99.90;;;;;;5093116;28;20536;-77
2020/12/21 09:52:13;;;;;;;5.30;4.70;;;8.00;99.90;;;;;;5093004;28;20449;-77
2020/12/21 09:54:40;;;;;;;6.80;4.33;;;8.00;80.30;;;;;;5092353;28;20763;-76
2020/12/21 09:57:06;;;;;;;7.17;4.00;;;8.00;95.70;;;;;;5093041;28;20532;-76
2020/12/21 09:59:33;;;;;;;4.63;4.23;;;8.10;88.70;;;;;;5090649;28;20520;-76
2020/12/21 10:01:59;;;;;;;9.43;4.10;;;8.20;34.80;;;;;;5072691;28;20536;-77
2020/12/21 10:04:25;;;;;;;6.17;3.93;;;8.30;1.00;;;;;;5072105;28;20564;-77
2020/12/21 10:06:53;;;;;;;6.17;3.60;;;8.30;1.00;;;;;;5072231;28;20528;-76
2020/12/21 10:09:19;;;;;;;4.43;3.83;;;8.30;1.00;;;;;;5072852;28;20442;-76
2020/12/21 10:11:46;;;;;;;7.23;3.67;;;8.40;1.00;;;;;;5071784;28;20488;-77
2020/12/21 10:14:12;;;;;;;7.03;4.23;;;8.40;1.00;;;;;;5072711;28;20453;-77
2020/12/21 10:16:38;;;;;;;5.93;4.40;;;8.50;1.00;;;;;;5071382;28;20828;-76
2020/12/21 10:19:05;;;;;;;6.23;4.30;;;8.50;1.00;;;;;;5072257;28;20457;-76
2020/12/21 10:21:32;;;;;;;6.10;3.73;;;8.50;1.00;;;;;;5080494;28;20453;-76
2020/12/21 10:23:59;;;;;;;4.87;3.83;;;8.50;1.00;;;;;;5092807;28;20516;-77
2020/12/21 10:26:25;;;;;;;5.47;3.60;;;8.50;1.00;;;;;;5092384;28;20594;-76
2020/12/21 10:28:52;;;;;;;4.30;3.60;;;8.70;1.00;;;;;;5092016;28;20444;-75
2020/12/21 10:31:18;;;;;;;6.47;4.53;;;8.60;1.00;;;;;;5092975;28;20540;-76
2020/12/21 10:33:44;;;;;;;5.30;3.77;;;8.60;1.00;;;;;;5096088;28;20544;-76
2020/12/21 10:36:15;;;;;;;5.23;3.53;;;8.70;1.00;;;;;;5092401;28;20493;-76
2020/12/21 10:38:41;;;;;;;4.70;3.40;;;8.70;1.00;;;;;;5092807;28;20445;-76
2020/12/21 10:41:09;;;;;;;4.07;3.40;;;8.70;1.00;;;;;;5101743;28;20466;-77
2020/12/21 10:43:35;;;;;;;6.73;3.43;;;8.80;1.00;;;;;;5103818;28;20494;-76
2020/12/21 10:46:01;;;;;;;7.77;4.27;;;8.80;1.00;;;;;;5105612;28;20447;-75
2020/12/21 10:48:28;;;;;;;5.77;3.90;;;8.70;1.00;;;;;;5096478;28;20488;-76
2020/12/21 10:50:55;;;;;;;8.83;3.43;;;8.70;1.00;;;;;;5092234;28;20865;-76
2020/12/21 10:53:22;;;;;;;6.97;3.00;;;8.70;1.00;;;;;;5092016;28;20457;-76
2020/12/21 10:55:48;;;;;;;4.43;3.77;;;8.70;1.00;;;;;;5091284;28;20449;-76
2020/12/21 10:58:15;;;;;;;3.23;2.80;;;8.90;1.00;;;;;;5091825;28;20535;-76
2020/12/21 11:00:42;;;;;;;8.30;3.10;;;8.90;1.00;;;;;;5080416;28;20528;-76
2020/12/21 11:03:08;;;;;;;7.77;3.97;;;9.00;1.00;;;;;;5071675;28;20503;-77
2020/12/21 11:05:34;;;;;;;4.07;2.20;;;9.10;1.00;;;;;;5070890;28;20468;-76
2020/12/21 11:08:01;;;;;;;4.57;2.90;;;9.10;1.00;;;;;;5071753;28;20481;-76
2020/12/21 11:10:28;;;;;;;5.53;3.53;;;9.00;99.90;;;;;;5071466;28;20536;-76
2020/12/21 11:12:55;;;;;;;4.50;2.20;;;9.00;99.90;;;;;;5071321;28;20480;-77
2020/12/21 11:15:22;;;;;;;5.53;2.50;;;9.00;1.00;;;;;;5071363;28;20520;-75
2020/12/21 11:17:49;;;;;;;6.10;4.50;;;9.10;99.90;;;;;;5089477;28;20551;-76
2020/12/21 11:20:15;;;;;;;9.70;5.90;;;9.10;99.90;;;;;;5091423;28;20527;-76
2020/12/21 11:22:43;;;;;;;7.73;5.43;;;9.20;99.90;;;;;;5091364;28;20860;-76
2020/12/21 11:25:10;;;;;;;4.67;3.57;;;9.20;99.90;;;;;;5091363;28;20447;-77
2020/12/21 11:27:36;;;;;;;6.20;4.17;;;9.30;99.90;;;;;;5091082;28;20440;-77
2020/12/21 11:30:03;;;;;;;4.73;4.10;;;9.30;99.90;;;;;;5079456;28;20544;-77
2020/12/21 11:32:31;;;;;;;10.63;4.63;;;9.30;99.90;;;;;;5071133;28;20453;-74
2020/12/21 11:34:58;;;;;;;5.50;3.33;;;9.20;99.90;;;;;;5071072;28;20445;-76
2020/12/21 11:37:24;;;;;;;3.67;3.10;;;9.20;99.90;;;;;;5071613;28;20587;-77
2020/12/21 11:39:51;;;;;;;7.40;3.00;;;9.20;99.90;;;;;;5070964;28;20477;-76
2020/12/21 11:42:17;;;;;;;5.50;2.43;;;9.20;99.90;;;;;;5071169;28;20488;-77
2020/12/21 11:44:44;;;;;;;4.10;3.37;;;9.30;99.90;;;;;;5070661;28;20573;-77
2020/12/21 11:47:11;;;;;;;4.07;3.30;;;9.30;99.90;;;;;;5075463;28;20546;-77
2020/12/21 11:49:38;;;;;;;4.00;3.20;;;9.40;99.90;;;;;;5074795;28;20525;-76
2020/12/21 11:52:05;;;;;;;2.93;2.37;;;9.40;99.90;;;;;;5074903;28;20486;-77
2020/12/21 11:54:31;;;;;;;3.20;2.73;;;9.40;1.00;;;;;;5074406;28;20650;-75
2020/12/21 11:56:58;;;;;;;4.70;2.80;;;9.40;99.90;;;;;;5075331;28;20533;-77
2020/12/21 11:59:24;;;;;;;5.40;3.13;;;9.50;99.90;;;;;;5075010;28;20878;-77
2020/12/21 12:01:56;;;;;;;5.50;2.70;;;9.50;99.90;;;;;;5074219;28;20536;-76
2020/12/21 12:04:22;;;;;;;7.67;3.20;;;9.50;99.90;;;;;;5074205;28;20552;-76
2020/12/21 12:06:52;;;;;;;5.63;3.20;;;9.70;1.00;;;;;;5074019;28;20533;-77
2020/12/21 12:09:18;;;;;;;2.03;1.80;;;9.90;99.90;;;;;;5074705;28;20455;-77
2020/12/21 12:11:45;;;;;;;2.20;2.00;;;10.00;99.90;;;;;;5073759;28;20477;-77
2020/12/21 12:14:12;;;;;;;5.97;2.50;;;10.00;99.90;;;;;;5074048;28;20507;-78
2020/12/21 12:16:39;;;;;;;3.17;2.77;;;10.00;99.90;;;;;;5073400;28;20553;-77
2020/12/21 12:19:05;;;;;;;3.33;2.43;;;10.00;99.90;;;;;;5074490;28;20524;-77
2020/12/21 12:21:32;;;;;;;3.73;2.60;;;10.20;99.90;;;;;;5073694;28;20957;-77
2020/12/21 12:23:59;;;;;;;4.87;2.27;;;10.30;99.90;;;;;;5074340;28;20476;-77
2020/12/21 12:26:26;;;;;;;4.57;2.20;;;10.30;99.90;;;;;;5073844;28;20536;-77
2020/12/21 12:28:54;;;;;;;3.90;2.50;;;10.20;99.90;;;;;;5073315;28;20441;-77
2020/12/21 12:31:21;;;;;;;2.37;2.17;;;10.20;99.90;;;;;;5073950;28;20453;-77
2020/12/21 12:33:48;;;;;;;4.20;2.60;;;10.20;99.90;;;;;;5090260;28;20467;-76
2020/12/21 12:36:18;;;;;;;4.90;2.70;;;10.20;1.00;;;;;;5096044;28;20537;-76
2020/12/21 12:38:44;;;;;;;3.77;2.53;;;10.10;99.90;;;;;;5093898;28;20534;-76
2020/12/21 12:41:12;;;;;;;6.33;2.90;;;10.00;1.00;;;;;;5094354;28;20460;-76
2020/12/21 12:43:39;;;;;;;3.83;2.40;;;10.10;1.00;;;;;;5093818;28;20920;-76
2020/12/21 12:46:05;;;;;;;3.10;2.77;;;10.30;1.00;;;;;;5093818;28;20499;-76
2020/12/21 12:48:32;;;;;;;4.93;2.13;;;10.50;99.90;;;;;;5093841;28;20527;-76
2020/12/21 12:50:59;;;;;;;3.50;2.53;;;10.60;16.30;;;;;;5094269;28;21035;-76
2020/12/21 12:53:25;;;;;;;4.40;2.50;;;10.60;1.00;;;;;;5094377;28;20486;-75
2020/12/21 12:55:51;;;;;;;3.70;2.40;;;10.50;1.00;;;;;;5092573;28;20528;-74
2020/12/21 12:58:19;;;;;;;4.50;2.90;;;10.50;45.10;;;;;;5076358;28;20533;-76
2020/12/21 13:00:45;;;;;;;4.77;2.50;;;10.70;99.90;;;;;;5073368;28;20848;-76